createdAt,value
2023-05-05T00:00:38.124Z,78.07
2023-05-05T00:03:43.030Z,77.84
2023-05-05T00:06:46.379Z,78.61
2023-05-05T00:09:50.018Z,77.55
2023-05-05T00:12:53.454Z,76.57
2023-05-05T00:15:56.689Z,77.03
2023-05-05T00:19:00.396Z,76.82
2023-05-05T00:22:03.968Z,75.97
2023-05-05T00:25:07.193Z,75.63
2023-05-05T00:28:14.340Z,75.75
2023-05-05T00:31:17.852Z,76.84
2023-05-05T00:34:21.859Z,76.83
2023-05-05T00:37:26.008Z,78.20
2023-05-05T00:40:29.196Z,78.75
2023-05-05T00:43:32.773Z,79.36
2023-05-05T00:46:36.009Z,79.58
2023-05-05T00:49:39.757Z,80.09
2023-05-05T00:52:45.188Z,80.58
2023-05-05T00:55:48.890Z,79.55
2023-05-05T00:58:52.860Z,79.29
2023-05-05T01:01:56.374Z,80.48
2023-05-05T01:05:00.339Z,80.96
2023-05-05T01:08:33.140Z,81.65
2023-05-05T01:11:46.818Z,81.88
2023-05-05T01:15:23.173Z,81.94
2023-05-05T01:18:42.389Z,82.04
2023-05-05T01:21:51.810Z,81.81
2023-05-05T01:25:12.241Z,82.18
2023-05-05T01:28:42.815Z,81.64
2023-05-05T01:31:52.108Z,81.04
2023-05-05T01:35:02.029Z,78.79
2023-05-05T01:38:12.541Z,79.06
2023-05-05T01:41:20.001Z,79.01
2023-05-05T01:44:24.725Z,78.06
2023-05-05T01:47:29.537Z,79.16
2023-05-05T01:50:32.985Z,78.05
2023-05-05T01:53:38.274Z,77.95
2023-05-05T01:56:42.526Z,77.69
2023-05-05T01:59:47.392Z,77.91
2023-05-05T02:02:52.646Z,78.50
2023-05-05T02:05:58.451Z,78.50
2023-05-05T02:09:03.396Z,77.76
2023-05-05T02:12:07.660Z,77.70
2023-05-05T02:15:12.520Z,78.04
2023-05-05T02:18:16.002Z,78.45
2023-05-05T02:21:21.072Z,78.43
2023-05-05T02:24:25.161Z,78.28
2023-05-05T02:27:28.671Z,78.17
2023-05-05T02:30:35.063Z,78.46
2023-05-05T02:33:39.461Z,78.97
2023-05-05T02:36:48.215Z,80.31
2023-05-05T02:39:59.191Z,81.02
2023-05-05T02:43:09.021Z,81.77
2023-05-05T02:46:12.170Z,82.34
2023-05-05T02:49:17.831Z,83.40
2023-05-05T02:52:21.191Z,83.80
2023-05-05T02:55:27.050Z,84.70
2023-05-05T02:58:35.332Z,85.08
2023-05-05T03:02:00.728Z,85.32
2023-05-05T03:05:13.087Z,86.05
2023-05-05T03:09:05.623Z,86.49
2023-05-05T03:12:11.693Z,86.37
2023-05-05T03:15:16.646Z,86.14
2023-05-05T03:18:23.055Z,85.92
2023-05-05T03:21:30.787Z,86.12
2023-05-05T03:24:34.986Z,86.45
2023-05-05T03:27:38.396Z,86.50
2023-05-05T03:30:42.923Z,86.44
2023-05-05T03:33:46.530Z,87.16
2023-05-05T03:36:51.068Z,88.31
2023-05-05T03:39:54.557Z,88.51
2023-05-05T03:42:58.464Z,87.87
2023-05-05T03:46:01.977Z,88.05
2023-05-05T03:49:05.182Z,88.23
2023-05-05T03:52:13.176Z,88.59
2023-05-05T03:55:17.315Z,88.82
2023-05-05T03:58:21.526Z,88.64
2023-05-05T04:01:25.977Z,88.93
2023-05-05T04:04:29.586Z,89.73
2023-05-05T04:07:36.449Z,89.39
2023-05-05T04:10:40.843Z,88.85
2023-05-05T04:13:44.819Z,88.49
2023-05-05T04:16:49.020Z,88.19
2023-05-05T04:19:52.547Z,88.11
2023-05-05T04:22:57.448Z,88.52
2023-05-05T04:26:00.543Z,89.28
2023-05-05T04:29:05.067Z,89.42
2023-05-05T04:32:08.182Z,89.28
2023-05-05T04:35:12.648Z,89.94
2023-05-05T04:38:16.231Z,91.31
2023-05-05T04:41:20.357Z,91.27
2023-05-05T04:44:23.563Z,91.85
2023-05-05T04:47:26.929Z,92.69
2023-05-05T04:50:30.592Z,94.26
2023-05-05T04:53:33.939Z,94.74
2023-05-05T04:56:38.106Z,92.55
2023-05-05T04:59:42.094Z,89.74
2023-05-05T05:02:45.906Z,88.53
2023-05-05T05:05:51.305Z,88.96
2023-05-05T05:08:56.216Z,89.51
2023-05-05T05:12:03.137Z,89.73
2023-05-05T05:15:06.311Z,89.80
2023-05-05T05:18:11.128Z,88.38
2023-05-05T05:21:14.944Z,89.29
2023-05-05T05:24:18.061Z,89.39
2023-05-05T05:27:22.427Z,88.99
2023-05-05T05:30:27.707Z,89.46
2023-05-05T05:33:31.789Z,89.43
2023-05-05T05:36:35.134Z,87.22
2023-05-05T05:39:39.757Z,85.92
2023-05-05T05:42:46.633Z,85.92
2023-05-05T05:45:50.200Z,84.61
2023-05-05T05:48:53.843Z,83.50
2023-05-05T05:51:57.183Z,82.78
2023-05-05T05:55:01.896Z,82.78
2023-05-05T05:58:05.227Z,82.69
2023-05-05T06:01:08.724Z,80.87
2023-05-05T06:04:14.128Z,78.27
2023-05-05T06:07:18.156Z,79.40
2023-05-05T06:10:28.106Z,78.32
2023-05-05T06:13:31.606Z,77.85
2023-05-05T06:16:34.642Z,78.79
2023-05-05T06:19:40.963Z,78.03
2023-05-05T06:22:44.628Z,77.44
2023-05-05T06:25:51.052Z,79.74
2023-05-05T06:28:54.304Z,76.54
2023-05-05T06:31:58.366Z,73.51
2023-05-05T06:35:03.427Z,72.50
2023-05-05T06:38:06.676Z,71.96
2023-05-05T06:41:09.662Z,74.63
2023-05-05T06:44:15.146Z,70.87
2023-05-05T06:47:18.168Z,73.42
2023-05-05T06:50:21.294Z,72.43
2023-05-05T06:53:25.254Z,68.79
2023-05-05T06:56:28.913Z,70.48
2023-05-05T06:59:32.634Z,69.90
2023-05-05T07:02:37.214Z,67.88
2023-05-05T07:05:41.405Z,66.45
2023-05-05T07:08:45.006Z,65.38
2023-05-05T07:11:48.420Z,65.22
2023-05-05T07:14:51.406Z,64.65
2023-05-05T07:18:01.005Z,65.42
2023-05-05T07:21:06.534Z,63.57
2023-05-05T07:24:10.024Z,64.13
2023-05-05T07:27:13.137Z,64.24
2023-05-05T07:30:19.465Z,63.93
2023-05-05T07:33:23.304Z,62.57
2023-05-05T07:36:28.013Z,62.88
2023-05-05T07:39:31.972Z,63.40
2023-05-05T07:42:35.589Z,62.35
2023-05-05T07:45:39.474Z,62.56
2023-05-05T07:48:43.453Z,62.00
2023-05-05T07:51:49.575Z,61.74
2023-05-05T07:54:55.155Z,63.38
2023-05-05T07:57:58.531Z,62.40
2023-05-05T08:01:03.298Z,61.26
2023-05-05T08:04:06.782Z,61.72
2023-05-05T08:07:10.408Z,59.79
2023-05-05T08:10:15.055Z,59.61
2023-05-05T08:13:18.445Z,58.20
2023-05-05T08:16:23.042Z,58.09
2023-05-05T08:19:29.526Z,58.36
2023-05-05T08:22:33.960Z,57.78
2023-05-05T08:25:38.000Z,58.25
2023-05-05T08:28:41.341Z,56.67
2023-05-05T08:31:44.852Z,56.40
2023-05-05T08:34:49.301Z,56.33
2023-05-05T08:37:52.841Z,55.72
2023-05-05T08:40:56.993Z,55.17
2023-05-05T08:44:00.766Z,54.90
2023-05-05T08:47:05.888Z,53.97
2023-05-05T08:50:11.843Z,54.44
2023-05-05T08:53:22.842Z,52.80
2023-05-05T08:56:39.532Z,54.39
2023-05-05T08:59:43.526Z,52.37
2023-05-05T09:02:47.894Z,52.91
2023-05-05T09:05:52.816Z,52.44
2023-05-05T09:08:57.617Z,52.15
2023-05-05T09:12:06.364Z,51.36
2023-05-05T09:15:15.219Z,51.06
2023-05-05T09:18:23.160Z,50.36
2023-05-05T09:21:27.332Z,48.44
2023-05-05T09:24:31.394Z,50.26
2023-05-05T09:27:42.805Z,48.36
2023-05-05T09:30:48.206Z,49.38
2023-05-05T09:33:51.343Z,47.47
2023-05-05T09:36:56.098Z,48.09
2023-05-05T09:40:02.986Z,47.92
2023-05-05T09:43:07.328Z,47.21
2023-05-05T09:46:10.855Z,46.46
2023-05-05T09:49:17.690Z,45.36
2023-05-05T09:52:21.721Z,46.04
2023-05-05T09:55:26.371Z,46.53
2023-05-05T09:58:30.958Z,44.31
2023-05-05T10:01:34.109Z,44.11
2023-05-05T10:04:37.874Z,45.42
2023-05-05T10:07:46.814Z,46.13
2023-05-05T10:10:56.768Z,46.03
2023-05-05T10:14:00.745Z,44.98
2023-05-05T10:17:05.407Z,44.18
2023-05-05T10:20:10.496Z,46.11
2023-05-05T10:23:19.178Z,46.16
2023-05-05T10:26:23.622Z,45.15
2023-05-05T10:30:07.770Z,44.85
2023-05-05T10:36:31.892Z,41.79
2023-05-05T10:39:37.970Z,40.17
2023-05-05T10:42:43.665Z,39.78
2023-05-05T10:45:51.450Z,38.26
2023-05-05T10:49:27.747Z,37.03
2023-05-05T10:52:50.250Z,37.63
2023-05-05T10:56:15.975Z,37.10
2023-05-05T10:59:39.679Z,40.55
2023-05-05T11:02:43.841Z,43.17
2023-05-05T11:06:23.490Z,42.89
2023-05-05T11:09:28.252Z,43.46
2023-05-05T11:12:36.138Z,41.52
2023-05-05T11:15:42.699Z,41.42
2023-05-05T11:18:46.202Z,42.67
2023-05-05T11:22:03.146Z,43.71
2023-05-05T11:25:36.217Z,43.66
2023-05-05T11:29:07.303Z,41.03
2023-05-05T11:32:14.822Z,40.36
2023-05-05T11:35:19.120Z,40.12
2023-05-05T11:38:57.803Z,41.78
2023-05-05T11:42:21.104Z,40.19
2023-05-05T11:45:25.324Z,40.81
2023-05-05T11:48:28.823Z,40.25
2023-05-05T11:51:34.185Z,38.31
2023-05-05T11:54:50.195Z,36.99
2023-05-05T11:57:54.449Z,38.51
2023-05-05T12:00:58.644Z,38.01
2023-05-05T12:04:03.892Z,37.96
2023-05-05T12:07:08.813Z,36.45
2023-05-05T12:10:12.460Z,36.38
2023-05-05T12:13:20.443Z,36.81
2023-05-05T12:16:26.759Z,37.27
2023-05-05T12:19:36.586Z,37.37
2023-05-05T12:22:47.420Z,38.31
2023-05-05T12:25:52.598Z,38.57
2023-05-05T12:28:58.326Z,37.46
2023-05-05T12:32:02.262Z,38.95
2023-05-05T12:35:07.919Z,38.85
2023-05-05T12:38:12.153Z,40.63
2023-05-05T12:41:21.647Z,41.42
2023-05-05T12:44:24.585Z,41.08
2023-05-05T12:47:37.024Z,40.40
2023-05-05T12:50:40.284Z,39.81
2023-05-05T12:53:43.927Z,39.26
2023-05-05T12:56:48.316Z,40.01
2023-05-05T12:59:53.303Z,41.26
2023-05-05T13:02:58.174Z,41.93
2023-05-05T13:06:20.186Z,41.29
2023-05-05T13:09:28.202Z,42.01
2023-05-05T13:12:33.095Z,40.41
2023-05-05T13:15:39.536Z,40.13
2023-05-05T13:18:50.117Z,38.95
2023-05-05T13:21:58.987Z,39.33
2023-05-05T13:25:02.574Z,40.21
2023-05-05T13:28:06.176Z,40.89
2023-05-05T13:31:09.738Z,40.72
2023-05-05T13:34:12.718Z,40.95
2023-05-05T13:37:16.455Z,42.99
2023-05-05T13:40:20.866Z,42.56
2023-05-05T13:43:24.169Z,42.00
2023-05-05T13:46:31.282Z,42.14
2023-05-05T13:49:35.701Z,41.72
2023-05-05T13:52:39.483Z,44.55
2023-05-05T13:55:44.769Z,43.37
2023-05-05T13:58:48.182Z,40.83
2023-05-05T14:01:52.161Z,40.85
2023-05-05T14:04:55.969Z,41.27
2023-05-05T14:07:59.663Z,40.23
2023-05-05T14:11:18.393Z,39.24
2023-05-05T14:14:23.899Z,37.56
2023-05-05T14:17:28.799Z,37.68
2023-05-05T14:20:34.802Z,38.39
2023-05-05T14:23:39.053Z,39.06
2023-05-05T14:26:45.153Z,38.00
2023-05-05T14:29:49.189Z,37.87
2023-05-05T14:32:52.997Z,38.49
2023-05-05T14:35:58.001Z,39.35
2023-05-05T14:39:02.154Z,39.52
2023-05-05T14:42:06.032Z,38.90
2023-05-05T14:45:11.463Z,38.78
2023-05-05T14:48:17.376Z,39.66
2023-05-05T14:51:20.921Z,38.60
2023-05-05T14:54:28.718Z,38.16
2023-05-05T14:57:34.573Z,39.39
2023-05-05T15:00:39.238Z,41.93
2023-05-05T15:03:43.053Z,42.95
2023-05-05T15:06:48.305Z,42.36
2023-05-05T15:09:52.827Z,43.77
2023-05-05T15:12:56.564Z,43.93
2023-05-05T15:15:59.659Z,44.63
2023-05-05T15:19:03.191Z,46.50
2023-05-05T15:22:06.152Z,45.54
2023-05-05T15:25:12.437Z,45.65
2023-05-05T15:28:15.916Z,44.88
2023-05-05T15:31:24.675Z,45.10
2023-05-05T15:34:28.032Z,47.95
2023-05-05T15:37:31.503Z,45.27
2023-05-05T15:40:34.688Z,45.89
2023-05-05T15:43:39.003Z,46.10
2023-05-05T15:46:42.737Z,46.40
2023-05-05T15:49:48.940Z,46.81
2023-05-05T15:52:52.756Z,47.69
2023-05-05T15:55:55.977Z,48.46
2023-05-05T15:58:59.962Z,45.75
2023-05-05T16:02:03.905Z,47.03
2023-05-05T16:05:08.248Z,46.54
2023-05-05T16:08:11.528Z,47.12
2023-05-05T16:11:20.640Z,47.34
2023-05-05T16:14:28.092Z,46.60
2023-05-05T16:17:33.631Z,47.98
2023-05-05T16:20:38.938Z,49.51
2023-05-05T16:23:43.451Z,48.37
2023-05-05T16:26:46.203Z,48.66
2023-05-05T16:29:49.400Z,49.93
2023-05-05T16:32:52.435Z,50.43
2023-05-05T16:35:55.962Z,50.55
2023-05-05T16:38:59.381Z,50.71
2023-05-05T16:42:03.545Z,49.67
2023-05-05T16:45:07.439Z,50.04
2023-05-05T16:48:10.863Z,50.98
2023-05-05T16:51:13.538Z,50.91
2023-05-05T16:54:16.844Z,51.70
2023-05-05T16:57:19.622Z,51.31
2023-05-05T17:00:22.510Z,51.31
2023-05-05T17:03:25.088Z,52.81
2023-05-05T17:06:32.943Z,51.91
2023-05-05T17:09:36.002Z,51.70
2023-05-05T17:12:39.305Z,54.02
2023-05-05T17:15:43.591Z,52.55
2023-05-05T17:18:46.890Z,53.09
2023-05-05T17:21:49.723Z,53.56
2023-05-05T17:24:52.739Z,52.75
2023-05-05T17:27:57.999Z,53.31
2023-05-05T17:31:01.635Z,53.44
2023-05-05T17:34:05.056Z,53.57
2023-05-05T17:37:09.990Z,54.05
2023-05-05T17:40:13.244Z,53.35
2023-05-05T17:43:17.395Z,54.03
2023-05-05T17:46:21.177Z,54.51
2023-05-05T17:49:25.669Z,54.46
2023-05-05T17:52:29.651Z,54.67
2023-05-05T17:55:33.097Z,54.71
2023-05-05T17:58:38.795Z,55.71
2023-05-05T18:01:49.794Z,56.21
2023-05-05T18:04:53.339Z,56.80
2023-05-05T18:07:57.499Z,57.73
2023-05-05T18:11:02.406Z,58.65
2023-05-05T18:14:05.909Z,59.83
2023-05-05T18:17:09.795Z,60.14
2023-05-05T18:20:13.066Z,60.13
2023-05-05T18:23:17.099Z,61.13
2023-05-05T18:26:21.298Z,61.57
2023-05-05T18:29:25.547Z,63.24
2023-05-05T18:32:31.766Z,63.16
2023-05-05T18:35:35.965Z,62.47
2023-05-05T18:38:40.810Z,63.05
2023-05-05T18:41:44.142Z,62.72
2023-05-05T18:44:47.684Z,63.40
2023-05-05T18:47:51.292Z,63.32
2023-05-05T18:50:55.459Z,63.00
2023-05-05T18:54:01.419Z,63.65
2023-05-05T18:57:04.857Z,64.26
2023-05-05T19:00:10.614Z,64.42
2023-05-05T19:03:13.830Z,64.69
2023-05-05T19:06:18.377Z,65.75
2023-05-05T19:09:23.378Z,66.31
2023-05-05T19:12:27.458Z,66.38
2023-05-05T19:15:33.241Z,66.67
2023-05-05T19:18:36.916Z,67.49
2023-05-05T19:21:40.847Z,67.40
2023-05-05T19:24:44.803Z,67.75
2023-05-05T19:27:48.289Z,67.41
2023-05-05T19:30:52.773Z,67.57
2023-05-05T19:34:01.643Z,67.57
2023-05-05T19:37:07.901Z,67.95
2023-05-05T19:40:13.122Z,67.75
2023-05-05T19:43:17.610Z,67.83
2023-05-05T19:46:27.447Z,67.92
2023-05-05T19:49:33.130Z,67.69
2023-05-05T19:52:38.715Z,67.76
2023-05-05T19:55:42.653Z,67.74
2023-05-05T19:59:04.586Z,69.03
2023-05-05T20:02:10.507Z,69.06
2023-05-05T20:05:16.413Z,68.92
2023-05-05T20:08:19.937Z,68.27
2023-05-05T20:11:25.308Z,68.24
2023-05-05T20:14:29.421Z,68.46
2023-05-05T20:17:33.980Z,67.71
2023-05-05T20:20:37.385Z,68.97
2023-05-05T20:23:43.504Z,68.77
2023-05-05T20:26:47.074Z,68.86
2023-05-05T20:29:53.336Z,68.57
2023-05-05T20:32:58.428Z,68.72
2023-05-05T20:36:02.542Z,68.84
2023-05-05T20:39:06.181Z,69.58
2023-05-05T20:42:10.113Z,70.74
2023-05-05T20:45:15.459Z,70.24
2023-05-05T20:48:19.043Z,70.62
2023-05-05T20:51:23.188Z,70.67
2023-05-05T20:54:34.637Z,70.50
2023-05-05T20:57:37.910Z,70.79
2023-05-05T21:00:45.755Z,71.12
2023-05-05T21:03:49.235Z,72.03
2023-05-05T21:06:55.144Z,72.66
2023-05-05T21:09:59.346Z,72.97
2023-05-05T21:13:04.447Z,73.11
2023-05-05T21:16:09.146Z,72.90
2023-05-05T21:19:13.143Z,73.77
2023-05-05T21:22:18.120Z,74.12
2023-05-05T21:25:22.253Z,74.90
2023-05-05T21:28:26.382Z,74.84
2023-05-05T21:31:30.311Z,75.18
2023-05-05T21:34:33.717Z,75.63
2023-05-05T21:37:38.538Z,76.12
2023-05-05T21:40:43.149Z,76.21
2023-05-05T21:43:48.088Z,76.93
2023-05-05T21:46:55.754Z,77.63
2023-05-05T21:50:00.297Z,77.78
2023-05-05T21:53:03.323Z,78.27
2023-05-05T21:56:11.065Z,78.45
2023-05-05T21:59:15.312Z,78.70
2023-05-05T22:02:21.595Z,79.01
2023-05-05T22:05:26.077Z,79.31
2023-05-05T22:08:29.762Z,79.43
2023-05-05T22:11:33.709Z,79.67
2023-05-05T22:14:36.834Z,79.72
2023-05-05T22:17:42.605Z,80.06
2023-05-05T22:20:47.006Z,80.22
2023-05-05T22:23:51.663Z,80.45
2023-05-05T22:26:57.945Z,80.34
2023-05-05T22:30:02.557Z,81.09
2023-05-05T22:33:06.530Z,80.64
2023-05-05T22:36:10.675Z,81.19
2023-05-05T22:39:14.210Z,82.49
2023-05-05T22:42:18.834Z,81.80
2023-05-05T22:45:23.614Z,82.23
2023-05-05T22:48:27.875Z,82.46
2023-05-05T22:51:31.855Z,82.34
2023-05-05T22:54:36.240Z,82.31
2023-05-05T22:57:43.305Z,82.92
2023-05-05T23:00:50.459Z,83.37
2023-05-05T23:03:53.952Z,84.01
2023-05-05T23:06:58.753Z,84.59
2023-05-05T23:10:02.558Z,85.31
2023-05-05T23:13:06.397Z,85.89
2023-05-05T23:16:09.960Z,86.75
2023-05-05T23:19:15.111Z,86.86
2023-05-05T23:22:19.501Z,87.43
2023-05-05T23:25:23.463Z,87.58
2023-05-05T23:28:27.547Z,87.46
2023-05-05T23:31:31.860Z,87.55
2023-05-05T23:34:35.190Z,87.75
2023-05-05T23:37:41.942Z,87.96
2023-05-05T23:40:45.246Z,88.21
2023-05-05T23:43:49.243Z,88.21
2023-05-05T23:46:52.424Z,88.51
2023-05-05T23:49:58.617Z,88.79
2023-05-05T23:53:02.121Z,88.85
2023-05-05T23:56:07.003Z,88.76
2023-05-05T23:59:10.022Z,89.01
